<?xml version="1.0" encoding="UTF-8" standalone="no" ?>
<gpx xmlns="http://www.topografix.com/GPX/1/1" xmlns:xsi="http://www.w3.org/2001/XMLSchema-instance" xsi:schemaLocation="http://www.topografix.com/GPX/1/1 http://www.topografix.com/GPX/1/1/gpx.xsd" version="1.1" creator="VisuGPX - https://www.visugpx.com">
  <metadata>
    <name>Gd Som 60 ans de Jeanot</name>
    <desc><![CDATA[A développer, A développer, A développer, A développer, A développer, A développer, A développer, A développer, A développer,]]></desc>
  </metadata>
  <trk>
    <name><![CDATA[Gd Som 60 ans de Jeanot]]></name>
    <trkseg>
      <trkpt lat="45.39997" lon="5.79936">
        <ele>1139.599975586</ele>
        <time>2013-02-28T08:45:39Z</time>
      </trkpt>
      <trkpt lat="45.39993" lon="5.79935">
        <ele>1140.199951172</ele>
        <time>2013-02-28T08:45:49Z</time>
      </trkpt>
      <trkpt lat="45.39991" lon="5.79941">
        <ele>1140.800048828</ele>
        <time>2013-02-28T08:45:54Z</time>
      </trkpt>
      <trkpt lat="45.39994" lon="5.79946">
        <ele>1140.400024414</ele>
        <time>2013-02-28T08:46:01Z</time>
      </trkpt>
      <trkpt lat="45.40007" lon="5.79943">
        <ele>1139.400024414</ele>
        <time>2013-02-28T08:46:14Z</time>
      </trkpt>
      <trkpt lat="45.40008" lon="5.79975">
        <ele>1139.400024414</ele>
        <time>2013-02-28T08:46:30Z</time>
      </trkpt>
      <trkpt lat="45.40014" lon="5.80027">
        <ele>1144.199951172</ele>
        <time>2013-02-28T08:47:01Z</time>
      </trkpt>
      <trkpt lat="45.40022" lon="5.80043">
        <ele>1146.599975586</ele>
        <time>2013-02-28T08:47:19Z</time>
      </trkpt>
      <trkpt lat="45.40031" lon="5.80094">
        <ele>1155.599975586</ele>
        <time>2013-02-28T08:48:04Z</time>
      </trkpt>
      <trkpt lat="45.40027" lon="5.80135">
        <ele>1164.599975586</ele>
        <time>2013-02-28T08:48:33Z</time>
      </trkpt>
      <trkpt lat="45.4002" lon="5.80159">
        <ele>1170.400024414</ele>
        <time>2013-02-28T08:48:52Z</time>
      </trkpt>
      <trkpt lat="45.40002" lon="5.80188">
        <ele>1178.599975586</ele>
        <time>2013-02-28T08:49:33Z</time>
      </trkpt>
      <trkpt lat="45.39992" lon="5.80198">
        <ele>1183.199951172</ele>
        <time>2013-02-28T08:49:50Z</time>
      </trkpt>
      <trkpt lat="45.39971" lon="5.8021">
        <ele>1191</ele>
        <time>2013-02-28T08:50:14Z</time>
      </trkpt>
      <trkpt lat="45.39947" lon="5.80215">
        <ele>1198</ele>
        <time>2013-02-28T08:50:43Z</time>
      </trkpt>
      <trkpt lat="45.39935" lon="5.80214">
        <ele>1201.199951172</ele>
        <time>2013-02-28T08:50:56Z</time>
      </trkpt>
      <trkpt lat="45.39906" lon="5.80225">
        <ele>1209</ele>
        <time>2013-02-28T08:51:32Z</time>
      </trkpt>
      <trkpt lat="45.3987" lon="5.80253">
        <ele>1218</ele>
        <time>2013-02-28T08:52:17Z</time>
      </trkpt>
      <trkpt lat="45.39845" lon="5.80263">
        <ele>1224.599975586</ele>
        <time>2013-02-28T08:52:56Z</time>
      </trkpt>
      <trkpt lat="45.39809" lon="5.80269">
        <ele>1233.400024414</ele>
        <time>2013-02-28T08:53:49Z</time>
      </trkpt>
      <trkpt lat="45.39783" lon="5.80267">
        <ele>1239.800048828</ele>
        <time>2013-02-28T08:54:24Z</time>
      </trkpt>
      <trkpt lat="45.3977" lon="5.80272">
        <ele>1243.199951172</ele>
        <time>2013-02-28T08:54:39Z</time>
      </trkpt>
      <trkpt lat="45.39751" lon="5.8027">
        <ele>1247.599975586</ele>
        <time>2013-02-28T08:54:57Z</time>
      </trkpt>
      <trkpt lat="45.39719" lon="5.80278">
        <ele>1251.800048828</ele>
        <time>2013-02-28T08:55:23Z</time>
      </trkpt>
      <trkpt lat="45.39688" lon="5.80291">
        <ele>1257</ele>
        <time>2013-02-28T08:55:47Z</time>
      </trkpt>
      <trkpt lat="45.39671" lon="5.80285">
        <ele>1258</ele>
        <time>2013-02-28T08:55:59Z</time>
      </trkpt>
      <trkpt lat="45.39645" lon="5.80292">
        <ele>1263.599975586</ele>
        <time>2013-02-28T08:56:24Z</time>
      </trkpt>
      <trkpt lat="45.39636" lon="5.80297">
        <ele>1265.800048828</ele>
        <time>2013-02-28T08:56:34Z</time>
      </trkpt>
      <trkpt lat="45.39615" lon="5.80299">
        <ele>1270.199951172</ele>
        <time>2013-02-28T08:56:55Z</time>
      </trkpt>
      <trkpt lat="45.39593" lon="5.80307">
        <ele>1275</ele>
        <time>2013-02-28T08:57:19Z</time>
      </trkpt>
      <trkpt lat="45.39555" lon="5.80334">
        <ele>1286</ele>
        <time>2013-02-28T08:58:14Z</time>
      </trkpt>
      <trkpt lat="45.39537" lon="5.80341">
        <ele>1291.400024414</ele>
        <time>2013-02-28T08:58:40Z</time>
      </trkpt>
      <trkpt lat="45.39528" lon="5.8035">
        <ele>1295.400024414</ele>
        <time>2013-02-28T08:58:55Z</time>
      </trkpt>
      <trkpt lat="45.39496" lon="5.80355">
        <ele>1304.199951172</ele>
        <time>2013-02-28T08:59:38Z</time>
      </trkpt>
      <trkpt lat="45.39491" lon="5.80351">
        <ele>1305</ele>
        <time>2013-02-28T08:59:46Z</time>
      </trkpt>
      <trkpt lat="45.39422" lon="5.80345">
        <ele>1325.400024414</ele>
        <time>2013-02-28T09:01:31Z</time>
      </trkpt>
      <trkpt lat="45.39401" lon="5.80335">
        <ele>1330.800048828</ele>
        <time>2013-02-28T09:02:04Z</time>
      </trkpt>
      <trkpt lat="45.39365" lon="5.80335">
        <ele>1344</ele>
        <time>2013-02-28T09:02:52Z</time>
      </trkpt>
      <trkpt lat="45.39356" lon="5.80341">
        <ele>1348.800048828</ele>
        <time>2013-02-28T09:03:09Z</time>
      </trkpt>
      <trkpt lat="45.39355" lon="5.80367">
        <ele>1356.599975586</ele>
        <time>2013-02-28T09:03:34Z</time>
      </trkpt>
      <trkpt lat="45.39361" lon="5.80383">
        <ele>1359</ele>
        <time>2013-02-28T09:03:51Z</time>
      </trkpt>
      <trkpt lat="45.39364" lon="5.80414">
        <ele>1366.199951172</ele>
        <time>2013-02-28T09:04:16Z</time>
      </trkpt>
      <trkpt lat="45.39371" lon="5.80425">
        <ele>1366.199951172</ele>
        <time>2013-02-28T09:04:29Z</time>
      </trkpt>
      <trkpt lat="45.39374" lon="5.80458">
        <ele>1376.599975586</ele>
        <time>2013-02-28T09:05:00Z</time>
      </trkpt>
      <trkpt lat="45.39394" lon="5.80505">
        <ele>1384.400024414</ele>
        <time>2013-02-28T09:05:43Z</time>
      </trkpt>
      <trkpt lat="45.39394" lon="5.80517">
        <ele>1389.400024414</ele>
        <time>2013-02-28T09:05:52Z</time>
      </trkpt>
      <trkpt lat="45.39406" lon="5.80533">
        <ele>1390.199951172</ele>
        <time>2013-02-28T09:06:13Z</time>
      </trkpt>
      <trkpt lat="45.39407" lon="5.80543">
        <ele>1393.199951172</ele>
        <time>2013-02-28T09:06:26Z</time>
      </trkpt>
      <trkpt lat="45.39422" lon="5.80575">
        <ele>1398.599975586</ele>
        <time>2013-02-28T09:06:59Z</time>
      </trkpt>
      <trkpt lat="45.39454" lon="5.80613">
        <ele>1410.599975586</ele>
        <time>2013-02-28T09:08:09Z</time>
      </trkpt>
      <trkpt lat="45.39454" lon="5.80618">
        <ele>1413.599975586</ele>
        <time>2013-02-28T09:08:15Z</time>
      </trkpt>
      <trkpt lat="45.39472" lon="5.80634">
        <ele>1416.599975586</ele>
        <time>2013-02-28T09:08:41Z</time>
      </trkpt>
      <trkpt lat="45.39474" lon="5.80631">
        <ele>1413.599975586</ele>
        <time>2013-02-28T09:08:44Z</time>
      </trkpt>
      <trkpt lat="45.39482" lon="5.80633">
        <ele>1411.800048828</ele>
        <time>2013-02-28T09:08:52Z</time>
      </trkpt>
      <trkpt lat="45.395" lon="5.80664">
        <ele>1422.199951172</ele>
        <time>2013-02-28T09:09:22Z</time>
      </trkpt>
      <trkpt lat="45.3951" lon="5.8069">
        <ele>1432.199951172</ele>
        <time>2013-02-28T09:09:55Z</time>
      </trkpt>
      <trkpt lat="45.39517" lon="5.807">
        <ele>1435.400024414</ele>
        <time>2013-02-28T09:10:08Z</time>
      </trkpt>
      <trkpt lat="45.39517" lon="5.80709">
        <ele>1439.599975586</ele>
        <time>2013-02-28T09:10:17Z</time>
      </trkpt>
      <trkpt lat="45.39499" lon="5.80758">
        <ele>1459.599975586</ele>
        <time>2013-02-28T09:11:04Z</time>
      </trkpt>
      <trkpt lat="45.39499" lon="5.80767">
        <ele>1459.800048828</ele>
        <time>2013-02-28T09:11:12Z</time>
      </trkpt>
      <trkpt lat="45.39496" lon="5.80776">
        <ele>1461.199951172</ele>
        <time>2013-02-28T09:11:23Z</time>
      </trkpt>
      <trkpt lat="45.39495" lon="5.808">
        <ele>1462.400024414</ele>
        <time>2013-02-28T09:11:43Z</time>
      </trkpt>
      <trkpt lat="45.39454" lon="5.80822">
        <ele>1469.400024414</ele>
        <time>2013-02-28T09:12:15Z</time>
      </trkpt>
      <trkpt lat="45.39435" lon="5.80824">
        <ele>1472.199951172</ele>
        <time>2013-02-28T09:12:32Z</time>
      </trkpt>
      <trkpt lat="45.39419" lon="5.80832">
        <ele>1473.800048828</ele>
        <time>2013-02-28T09:12:49Z</time>
      </trkpt>
      <trkpt lat="45.39402" lon="5.80828">
        <ele>1478.400024414</ele>
        <time>2013-02-28T09:13:08Z</time>
      </trkpt>
      <trkpt lat="45.39399" lon="5.80824">
        <ele>1479.599975586</ele>
        <time>2013-02-28T09:13:14Z</time>
      </trkpt>
      <trkpt lat="45.39366" lon="5.80821">
        <ele>1488.599975586</ele>
        <time>2013-02-28T09:14:02Z</time>
      </trkpt>
      <trkpt lat="45.39358" lon="5.80829">
        <ele>1489.400024414</ele>
        <time>2013-02-28T09:14:12Z</time>
      </trkpt>
      <trkpt lat="45.39334" lon="5.8083">
        <ele>1495.400024414</ele>
        <time>2013-02-28T09:14:35Z</time>
      </trkpt>
      <trkpt lat="45.39319" lon="5.80836">
        <ele>1498.400024414</ele>
        <time>2013-02-28T09:14:56Z</time>
      </trkpt>
      <trkpt lat="45.39296" lon="5.80815">
        <ele>1508.400024414</ele>
        <time>2013-02-28T09:15:24Z</time>
      </trkpt>
      <trkpt lat="45.39283" lon="5.80828">
        <ele>1509.400024414</ele>
        <time>2013-02-28T09:15:47Z</time>
      </trkpt>
      <trkpt lat="45.39266" lon="5.80832">
        <ele>1513</ele>
        <time>2013-02-28T09:16:08Z</time>
      </trkpt>
      <trkpt lat="45.39246" lon="5.80814">
        <ele>1523</ele>
        <time>2013-02-28T09:16:36Z</time>
      </trkpt>
      <trkpt lat="45.39238" lon="5.808">
        <ele>1528.800048828</ele>
        <time>2013-02-28T09:16:55Z</time>
      </trkpt>
      <trkpt lat="45.39233" lon="5.80799">
        <ele>1530.800048828</ele>
        <time>2013-02-28T09:17:06Z</time>
      </trkpt>
      <trkpt lat="45.39231" lon="5.80793">
        <ele>1532.599975586</ele>
        <time>2013-02-28T09:17:11Z</time>
      </trkpt>
      <trkpt lat="45.39223" lon="5.80791">
        <ele>1535.800048828</ele>
        <time>2013-02-28T09:17:28Z</time>
      </trkpt>
      <trkpt lat="45.39213" lon="5.80803">
        <ele>1536.800048828</ele>
        <time>2013-02-28T09:17:45Z</time>
      </trkpt>
      <trkpt lat="45.39209" lon="5.80799">
        <ele>1538.800048828</ele>
        <time>2013-02-28T09:17:53Z</time>
      </trkpt>
      <trkpt lat="45.39205" lon="5.80804">
        <ele>1539.199951172</ele>
        <time>2013-02-28T09:17:58Z</time>
      </trkpt>
      <trkpt lat="45.39204" lon="5.80819">
        <ele>1537.199951172</ele>
        <time>2013-02-28T09:18:15Z</time>
      </trkpt>
      <trkpt lat="45.39196" lon="5.80833">
        <ele>1538.199951172</ele>
        <time>2013-02-28T09:18:39Z</time>
      </trkpt>
      <trkpt lat="45.39186" lon="5.80822">
        <ele>1543.599975586</ele>
        <time>2013-02-28T09:18:59Z</time>
      </trkpt>
      <trkpt lat="45.39151" lon="5.80822">
        <ele>1555</ele>
        <time>2013-02-28T09:19:42Z</time>
      </trkpt>
      <trkpt lat="45.39139" lon="5.8083">
        <ele>1556.800048828</ele>
        <time>2013-02-28T09:20:03Z</time>
      </trkpt>
      <trkpt lat="45.39118" lon="5.80833">
        <ele>1561.199951172</ele>
        <time>2013-02-28T09:20:32Z</time>
      </trkpt>
      <trkpt lat="45.3911" lon="5.80829">
        <ele>1563.800048828</ele>
        <time>2013-02-28T09:20:42Z</time>
      </trkpt>
      <trkpt lat="45.3909" lon="5.80834">
        <ele>1567.400024414</ele>
        <time>2013-02-28T09:21:08Z</time>
      </trkpt>
      <trkpt lat="45.39084" lon="5.80843">
        <ele>1569</ele>
        <time>2013-02-28T09:21:19Z</time>
      </trkpt>
      <trkpt lat="45.39068" lon="5.80842">
        <ele>1573.199951172</ele>
        <time>2013-02-28T09:21:36Z</time>
      </trkpt>
      <trkpt lat="45.39043" lon="5.80849">
        <ele>1580</ele>
        <time>2013-02-28T09:22:07Z</time>
      </trkpt>
      <trkpt lat="45.39026" lon="5.80836">
        <ele>1584.800048828</ele>
        <time>2013-02-28T09:22:48Z</time>
      </trkpt>
      <trkpt lat="45.39017" lon="5.80841">
        <ele>1587.199951172</ele>
        <time>2013-02-28T09:23:02Z</time>
      </trkpt>
      <trkpt lat="45.39009" lon="5.80838">
        <ele>1589.400024414</ele>
        <time>2013-02-28T09:23:16Z</time>
      </trkpt>
      <trkpt lat="45.38988" lon="5.8084">
        <ele>1597.199951172</ele>
        <time>2013-02-28T09:23:59Z</time>
      </trkpt>
      <trkpt lat="45.3897" lon="5.80835">
        <ele>1605.400024414</ele>
        <time>2013-02-28T09:24:23Z</time>
      </trkpt>
      <trkpt lat="45.38959" lon="5.80824">
        <ele>1613.199951172</ele>
        <time>2013-02-28T09:24:41Z</time>
      </trkpt>
      <trkpt lat="45.38942" lon="5.80837">
        <ele>1617.800048828</ele>
        <time>2013-02-28T09:25:09Z</time>
      </trkpt>
      <trkpt lat="45.38936" lon="5.8085">
        <ele>1620.400024414</ele>
        <time>2013-02-28T09:25:22Z</time>
      </trkpt>
      <trkpt lat="45.38928" lon="5.80855">
        <ele>1624.199951172</ele>
        <time>2013-02-28T09:25:34Z</time>
      </trkpt>
      <trkpt lat="45.38923" lon="5.80853">
        <ele>1626.199951172</ele>
        <time>2013-02-28T09:25:43Z</time>
      </trkpt>
      <trkpt lat="45.3891" lon="5.80865">
        <ele>1631.599975586</ele>
        <time>2013-02-28T09:26:06Z</time>
      </trkpt>
      <trkpt lat="45.38906" lon="5.80875">
        <ele>1633.599975586</ele>
        <time>2013-02-28T09:26:20Z</time>
      </trkpt>
      <trkpt lat="45.38899" lon="5.80878">
        <ele>1636</ele>
        <time>2013-02-28T09:26:30Z</time>
      </trkpt>
      <trkpt lat="45.38888" lon="5.80875">
        <ele>1640.400024414</ele>
        <time>2013-02-28T09:26:49Z</time>
      </trkpt>
      <trkpt lat="45.38886" lon="5.80885">
        <ele>1641</ele>
        <time>2013-02-28T09:27:00Z</time>
      </trkpt>
      <trkpt lat="45.38862" lon="5.80883">
        <ele>1650</ele>
        <time>2013-02-28T09:27:35Z</time>
      </trkpt>
      <trkpt lat="45.38849" lon="5.80867">
        <ele>1655</ele>
        <time>2013-02-28T09:28:00Z</time>
      </trkpt>
      <trkpt lat="45.38845" lon="5.8085">
        <ele>1656.599975586</ele>
        <time>2013-02-28T09:28:22Z</time>
      </trkpt>
      <trkpt lat="45.38844" lon="5.80832">
        <ele>1656.800048828</ele>
        <time>2013-02-28T09:28:47Z</time>
      </trkpt>
      <trkpt lat="45.38837" lon="5.80835">
        <ele>1659.599975586</ele>
        <time>2013-02-28T09:29:05Z</time>
      </trkpt>
      <trkpt lat="45.38839" lon="5.80818">
        <ele>1662.400024414</ele>
        <time>2013-02-28T09:29:28Z</time>
      </trkpt>
      <trkpt lat="45.38825" lon="5.80817">
        <ele>1668.800048828</ele>
        <time>2013-02-28T09:29:50Z</time>
      </trkpt>
      <trkpt lat="45.38829" lon="5.80797">
        <ele>1671.199951172</ele>
        <time>2013-02-28T09:30:15Z</time>
      </trkpt>
      <trkpt lat="45.38816" lon="5.80795">
        <ele>1678</ele>
        <time>2013-02-28T09:30:47Z</time>
      </trkpt>
      <trkpt lat="45.38821" lon="5.80771">
        <ele>1680.199951172</ele>
        <time>2013-02-28T09:31:14Z</time>
      </trkpt>
      <trkpt lat="45.38799" lon="5.80775">
        <ele>1689</ele>
        <time>2013-02-28T09:31:50Z</time>
      </trkpt>
      <trkpt lat="45.38779" lon="5.8079">
        <ele>1695.400024414</ele>
        <time>2013-02-28T09:32:25Z</time>
      </trkpt>
      <trkpt lat="45.38728" lon="5.80879">
        <ele>1699.400024414</ele>
        <time>2013-02-28T09:33:37Z</time>
      </trkpt>
      <trkpt lat="45.38682" lon="5.80975">
        <ele>1714.599975586</ele>
        <time>2013-02-28T09:34:59Z</time>
      </trkpt>
      <trkpt lat="45.38661" lon="5.81012">
        <ele>1723</ele>
        <time>2013-02-28T09:35:43Z</time>
      </trkpt>
      <trkpt lat="45.3864" lon="5.81035">
        <ele>1728.400024414</ele>
        <time>2013-02-28T09:36:23Z</time>
      </trkpt>
      <trkpt lat="45.38632" lon="5.81058">
        <ele>1731.800048828</ele>
        <time>2013-02-28T09:36:47Z</time>
      </trkpt>
      <trkpt lat="45.38655" lon="5.81059">
        <ele>1732.400024414</ele>
        <time>2013-02-28T09:37:20Z</time>
      </trkpt>
      <trkpt lat="45.38715" lon="5.81046">
        <ele>1734.199951172</ele>
        <time>2013-02-28T09:39:39Z</time>
      </trkpt>
      <trkpt lat="45.38736" lon="5.81058">
        <ele>1737.800048828</ele>
        <time>2013-02-28T09:40:18Z</time>
      </trkpt>
      <trkpt lat="45.38748" lon="5.81059">
        <ele>1738.800048828</ele>
        <time>2013-02-28T09:40:30Z</time>
      </trkpt>
      <trkpt lat="45.38768" lon="5.81081">
        <ele>1740</ele>
        <time>2013-02-28T09:40:41Z</time>
      </trkpt>
      <trkpt lat="45.38808" lon="5.81087">
        <ele>1736.400024414</ele>
        <time>2013-02-28T09:41:15Z</time>
      </trkpt>
      <trkpt lat="45.38814" lon="5.81091">
        <ele>1735.199951172</ele>
        <time>2013-02-28T09:41:20Z</time>
      </trkpt>
      <trkpt lat="45.38831" lon="5.81092">
        <ele>1733.800048828</ele>
        <time>2013-02-28T09:41:36Z</time>
      </trkpt>
      <trkpt lat="45.38845" lon="5.81117">
        <ele>1726.199951172</ele>
        <time>2013-02-28T09:45:23Z</time>
      </trkpt>
      <trkpt lat="45.38858" lon="5.81163">
        <ele>1718</ele>
        <time>2013-02-28T09:45:32Z</time>
      </trkpt>
      <trkpt lat="45.38859" lon="5.81181">
        <ele>1714.599975586</ele>
        <time>2013-02-28T09:45:37Z</time>
      </trkpt>
      <trkpt lat="45.38852" lon="5.81227">
        <ele>1705.599975586</ele>
        <time>2013-02-28T09:45:53Z</time>
      </trkpt>
      <trkpt lat="45.38851" lon="5.81248">
        <ele>1701</ele>
        <time>2013-02-28T09:45:58Z</time>
      </trkpt>
      <trkpt lat="45.38833" lon="5.81238">
        <ele>1704</ele>
        <time>2013-02-28T09:46:34Z</time>
      </trkpt>
      <trkpt lat="45.3884" lon="5.81306">
        <ele>1689</ele>
        <time>2013-02-28T09:47:07Z</time>
      </trkpt>
      <trkpt lat="45.3883" lon="5.8132">
        <ele>1686</ele>
        <time>2013-02-28T09:47:15Z</time>
      </trkpt>
      <trkpt lat="45.38836" lon="5.81353">
        <ele>1676.599975586</ele>
        <time>2013-02-28T09:47:29Z</time>
      </trkpt>
      <trkpt lat="45.3884" lon="5.81353">
        <ele>1676.800048828</ele>
        <time>2013-02-28T09:47:34Z</time>
      </trkpt>
      <trkpt lat="45.38852" lon="5.81386">
        <ele>1666</ele>
        <time>2013-02-28T09:47:41Z</time>
      </trkpt>
      <trkpt lat="45.38848" lon="5.81405">
        <ele>1659.800048828</ele>
        <time>2013-02-28T09:47:44Z</time>
      </trkpt>
      <trkpt lat="45.38831" lon="5.81427">
        <ele>1652.199951172</ele>
        <time>2013-02-28T09:47:50Z</time>
      </trkpt>
      <trkpt lat="45.38829" lon="5.81458">
        <ele>1641.800048828</ele>
        <time>2013-02-28T09:47:56Z</time>
      </trkpt>
      <trkpt lat="45.38823" lon="5.81464">
        <ele>1639.599975586</ele>
        <time>2013-02-28T09:47:59Z</time>
      </trkpt>
      <trkpt lat="45.38814" lon="5.81501">
        <ele>1627.400024414</ele>
        <time>2013-02-28T09:48:11Z</time>
      </trkpt>
      <trkpt lat="45.38815" lon="5.81534">
        <ele>1618.199951172</ele>
        <time>2013-02-28T09:48:17Z</time>
      </trkpt>
      <trkpt lat="45.38819" lon="5.81544">
        <ele>1615.400024414</ele>
        <time>2013-02-28T09:48:20Z</time>
      </trkpt>
      <trkpt lat="45.38803" lon="5.81605">
        <ele>1601.800048828</ele>
        <time>2013-02-28T09:48:31Z</time>
      </trkpt>
      <trkpt lat="45.38785" lon="5.81643">
        <ele>1595.800048828</ele>
        <time>2013-02-28T09:48:41Z</time>
      </trkpt>
      <trkpt lat="45.38792" lon="5.81652">
        <ele>1593.800048828</ele>
        <time>2013-02-28T09:48:45Z</time>
      </trkpt>
      <trkpt lat="45.38789" lon="5.81663">
        <ele>1591.599975586</ele>
        <time>2013-02-28T09:48:48Z</time>
      </trkpt>
      <trkpt lat="45.38776" lon="5.81674">
        <ele>1592.800048828</ele>
        <time>2013-02-28T09:48:51Z</time>
      </trkpt>
      <trkpt lat="45.38761" lon="5.81677">
        <ele>1594.199951172</ele>
        <time>2013-02-28T09:48:59Z</time>
      </trkpt>
      <trkpt lat="45.38763" lon="5.81678">
        <ele>1594.199951172</ele>
        <time>2013-02-28T09:51:49Z</time>
      </trkpt>
      <trkpt lat="45.38754" lon="5.81681">
        <ele>1595.599975586</ele>
        <time>2013-02-28T09:52:50Z</time>
      </trkpt>
      <trkpt lat="45.38705" lon="5.81662">
        <ele>1601.800048828</ele>
        <time>2013-02-28T09:53:35Z</time>
      </trkpt>
      <trkpt lat="45.38677" lon="5.81638">
        <ele>1606</ele>
        <time>2013-02-28T09:54:08Z</time>
      </trkpt>
      <trkpt lat="45.38666" lon="5.81623">
        <ele>1606.400024414</ele>
        <time>2013-02-28T09:54:21Z</time>
      </trkpt>
      <trkpt lat="45.38595" lon="5.81574">
        <ele>1616</ele>
        <time>2013-02-28T09:55:42Z</time>
      </trkpt>
      <trkpt lat="45.38575" lon="5.81553">
        <ele>1624.199951172</ele>
        <time>2013-02-28T09:56:14Z</time>
      </trkpt>
      <trkpt lat="45.38533" lon="5.81522">
        <ele>1639.400024414</ele>
        <time>2013-02-28T09:57:25Z</time>
      </trkpt>
      <trkpt lat="45.38523" lon="5.81489">
        <ele>1642.400024414</ele>
        <time>2013-02-28T09:58:02Z</time>
      </trkpt>
      <trkpt lat="45.38505" lon="5.81498">
        <ele>1644.400024414</ele>
        <time>2013-02-28T09:58:33Z</time>
      </trkpt>
      <trkpt lat="45.38487" lon="5.81483">
        <ele>1650.599975586</ele>
        <time>2013-02-28T09:58:55Z</time>
      </trkpt>
      <trkpt lat="45.38464" lon="5.81436">
        <ele>1653.599975586</ele>
        <time>2013-02-28T09:59:42Z</time>
      </trkpt>
      <trkpt lat="45.38445" lon="5.81446">
        <ele>1656.800048828</ele>
        <time>2013-02-28T10:01:41Z</time>
      </trkpt>
      <trkpt lat="45.38429" lon="5.81448">
        <ele>1659.400024414</ele>
        <time>2013-02-28T10:02:10Z</time>
      </trkpt>
      <trkpt lat="45.38425" lon="5.81466">
        <ele>1665</ele>
        <time>2013-02-28T10:02:33Z</time>
      </trkpt>
      <trkpt lat="45.38396" lon="5.81476">
        <ele>1675.800048828</ele>
        <time>2013-02-28T10:03:20Z</time>
      </trkpt>
      <trkpt lat="45.38383" lon="5.81498">
        <ele>1687.199951172</ele>
        <time>2013-02-28T10:03:53Z</time>
      </trkpt>
      <trkpt lat="45.38378" lon="5.81524">
        <ele>1694.800048828</ele>
        <time>2013-02-28T10:04:30Z</time>
      </trkpt>
      <trkpt lat="45.38374" lon="5.81527">
        <ele>1696.599975586</ele>
        <time>2013-02-28T10:04:40Z</time>
      </trkpt>
      <trkpt lat="45.3839" lon="5.81545">
        <ele>1696</ele>
        <time>2013-02-28T10:05:13Z</time>
      </trkpt>
      <trkpt lat="45.3838" lon="5.81549">
        <ele>1699.800048828</ele>
        <time>2013-02-28T10:05:34Z</time>
      </trkpt>
      <trkpt lat="45.38385" lon="5.81555">
        <ele>1699.800048828</ele>
        <time>2013-02-28T10:05:50Z</time>
      </trkpt>
      <trkpt lat="45.38375" lon="5.81558">
        <ele>1703.199951172</ele>
        <time>2013-02-28T10:06:08Z</time>
      </trkpt>
      <trkpt lat="45.38393" lon="5.8157">
        <ele>1700.599975586</ele>
        <time>2013-02-28T10:06:52Z</time>
      </trkpt>
      <trkpt lat="45.38385" lon="5.8158">
        <ele>1705.400024414</ele>
        <time>2013-02-28T10:07:16Z</time>
      </trkpt>
      <trkpt lat="45.3839" lon="5.81593">
        <ele>1708.199951172</ele>
        <time>2013-02-28T10:07:43Z</time>
      </trkpt>
      <trkpt lat="45.38389" lon="5.81604">
        <ele>1712.199951172</ele>
        <time>2013-02-28T10:07:59Z</time>
      </trkpt>
      <trkpt lat="45.38381" lon="5.81602">
        <ele>1714.199951172</ele>
        <time>2013-02-28T10:08:16Z</time>
      </trkpt>
      <trkpt lat="45.38379" lon="5.81617">
        <ele>1720.199951172</ele>
        <time>2013-02-28T10:08:39Z</time>
      </trkpt>
      <trkpt lat="45.38371" lon="5.81614">
        <ele>1722</ele>
        <time>2013-02-28T10:08:55Z</time>
      </trkpt>
      <trkpt lat="45.3837" lon="5.81621">
        <ele>1725</ele>
        <time>2013-02-28T10:09:03Z</time>
      </trkpt>
      <trkpt lat="45.38375" lon="5.81641">
        <ele>1731</ele>
        <time>2013-02-28T10:09:26Z</time>
      </trkpt>
      <trkpt lat="45.38362" lon="5.81637">
        <ele>1734</ele>
        <time>2013-02-28T10:09:44Z</time>
      </trkpt>
      <trkpt lat="45.38365" lon="5.81652">
        <ele>1739</ele>
        <time>2013-02-28T10:10:05Z</time>
      </trkpt>
      <trkpt lat="45.38348" lon="5.81637">
        <ele>1739.599975586</ele>
        <time>2013-02-28T10:10:31Z</time>
      </trkpt>
      <trkpt lat="45.38353" lon="5.81654">
        <ele>1745.199951172</ele>
        <time>2013-02-28T10:10:51Z</time>
      </trkpt>
      <trkpt lat="45.38326" lon="5.81627">
        <ele>1744.400024414</ele>
        <time>2013-02-28T10:11:42Z</time>
      </trkpt>
      <trkpt lat="45.38313" lon="5.81624">
        <ele>1749.199951172</ele>
        <time>2013-02-28T10:12:03Z</time>
      </trkpt>
      <trkpt lat="45.38288" lon="5.81589">
        <ele>1749</ele>
        <time>2013-02-28T10:12:56Z</time>
      </trkpt>
      <trkpt lat="45.38248" lon="5.8156">
        <ele>1759.199951172</ele>
        <time>2013-02-28T10:14:13Z</time>
      </trkpt>
      <trkpt lat="45.3825" lon="5.81619">
        <ele>1778.199951172</ele>
        <time>2013-02-28T10:15:23Z</time>
      </trkpt>
      <trkpt lat="45.38222" lon="5.81602">
        <ele>1773.800048828</ele>
        <time>2013-02-28T10:16:03Z</time>
      </trkpt>
      <trkpt lat="45.38151" lon="5.81551">
        <ele>1753.400024414</ele>
        <time>2013-02-28T10:18:06Z</time>
      </trkpt>
      <trkpt lat="45.38068" lon="5.81542">
        <ele>1763</ele>
        <time>2013-02-28T10:19:36Z</time>
      </trkpt>
      <trkpt lat="45.3801" lon="5.81516">
        <ele>1766.800048828</ele>
        <time>2013-02-28T10:20:42Z</time>
      </trkpt>
      <trkpt lat="45.37984" lon="5.81511">
        <ele>1770.800048828</ele>
        <time>2013-02-28T10:21:10Z</time>
      </trkpt>
      <trkpt lat="45.37975" lon="5.81516">
        <ele>1773.400024414</ele>
        <time>2013-02-28T10:21:22Z</time>
      </trkpt>
      <trkpt lat="45.37912" lon="5.81481">
        <ele>1776.599975586</ele>
        <time>2013-02-28T10:22:18Z</time>
      </trkpt>
      <trkpt lat="45.37852" lon="5.81458">
        <ele>1782.400024414</ele>
        <time>2013-02-28T10:23:12Z</time>
      </trkpt>
      <trkpt lat="45.37729" lon="5.81465">
        <ele>1806</ele>
        <time>2013-02-28T10:25:27Z</time>
      </trkpt>
      <trkpt lat="45.37707" lon="5.81457">
        <ele>1808.400024414</ele>
        <time>2013-02-28T10:25:56Z</time>
      </trkpt>
      <trkpt lat="45.3769" lon="5.81434">
        <ele>1808</ele>
        <time>2013-02-28T10:26:26Z</time>
      </trkpt>
      <trkpt lat="45.37671" lon="5.81419">
        <ele>1809.400024414</ele>
        <time>2013-02-28T10:26:50Z</time>
      </trkpt>
      <trkpt lat="45.37663" lon="5.81406">
        <ele>1808.400024414</ele>
        <time>2013-02-28T10:27:08Z</time>
      </trkpt>
      <trkpt lat="45.37652" lon="5.81398">
        <ele>1808.800048828</ele>
        <time>2013-02-28T10:27:27Z</time>
      </trkpt>
      <trkpt lat="45.37631" lon="5.81391">
        <ele>1811</ele>
        <time>2013-02-28T10:27:57Z</time>
      </trkpt>
      <trkpt lat="45.37575" lon="5.8135">
        <ele>1814</ele>
        <time>2013-02-28T10:30:03Z</time>
      </trkpt>
      <trkpt lat="45.37522" lon="5.81339">
        <ele>1821</ele>
        <time>2013-02-28T10:31:00Z</time>
      </trkpt>
      <trkpt lat="45.37484" lon="5.81325">
        <ele>1825</ele>
        <time>2013-02-28T10:31:38Z</time>
      </trkpt>
      <trkpt lat="45.37416" lon="5.81317">
        <ele>1833.400024414</ele>
        <time>2013-02-28T10:32:26Z</time>
      </trkpt>
      <trkpt lat="45.37351" lon="5.81299">
        <ele>1838.400024414</ele>
        <time>2013-02-28T10:33:12Z</time>
      </trkpt>
      <trkpt lat="45.37296" lon="5.81275">
        <ele>1840.199951172</ele>
        <time>2013-02-28T10:34:09Z</time>
      </trkpt>
      <trkpt lat="45.37254" lon="5.81272">
        <ele>1842.800048828</ele>
        <time>2013-02-28T10:35:08Z</time>
      </trkpt>
      <trkpt lat="45.3718" lon="5.81235">
        <ele>1840.199951172</ele>
        <time>2013-02-28T10:36:43Z</time>
      </trkpt>
      <trkpt lat="45.37157" lon="5.8122">
        <ele>1837.599975586</ele>
        <time>2013-02-28T10:37:09Z</time>
      </trkpt>
      <trkpt lat="45.37095" lon="5.81206">
        <ele>1833.800048828</ele>
        <time>2013-02-28T10:38:03Z</time>
      </trkpt>
      <trkpt lat="45.37069" lon="5.8121">
        <ele>1833</ele>
        <time>2013-02-28T10:38:23Z</time>
      </trkpt>
      <trkpt lat="45.37039" lon="5.81208">
        <ele>1830</ele>
        <time>2013-02-28T10:40:07Z</time>
      </trkpt>
      <trkpt lat="45.37041" lon="5.812">
        <ele>1828.800048828</ele>
        <time>2013-02-28T10:41:28Z</time>
      </trkpt>
      <trkpt lat="45.37046" lon="5.81202">
        <ele>1829.599975586</ele>
        <time>2013-02-28T10:41:59Z</time>
      </trkpt>
      <trkpt lat="45.37038" lon="5.81203">
        <ele>1829</ele>
        <time>2013-02-28T10:42:50Z</time>
      </trkpt>
      <trkpt lat="45.37037" lon="5.81207">
        <ele>1829.800048828</ele>
        <time>2013-02-28T10:43:16Z</time>
      </trkpt>
      <trkpt lat="45.37069" lon="5.81206">
        <ele>1832.199951172</ele>
        <time>2013-02-28T10:43:54Z</time>
      </trkpt>
      <trkpt lat="45.3708" lon="5.81193">
        <ele>1830.599975586</ele>
        <time>2013-02-28T10:44:14Z</time>
      </trkpt>
      <trkpt lat="45.37072" lon="5.81188">
        <ele>1829</ele>
        <time>2013-02-28T10:45:23Z</time>
      </trkpt>
      <trkpt lat="45.37075" lon="5.81191">
        <ele>1829.800048828</ele>
        <time>2013-02-28T10:45:56Z</time>
      </trkpt>
      <trkpt lat="45.37072" lon="5.8119">
        <ele>1829.400024414</ele>
        <time>2013-02-28T10:46:20Z</time>
      </trkpt>
      <trkpt lat="45.37071" lon="5.8118">
        <ele>1827.599975586</ele>
        <time>2013-02-28T10:47:23Z</time>
      </trkpt>
      <trkpt lat="45.37071" lon="5.81184">
        <ele>1828.199951172</ele>
        <time>2013-02-28T10:48:32Z</time>
      </trkpt>
      <trkpt lat="45.37072" lon="5.8118">
        <ele>1827.599975586</ele>
        <time>2013-02-28T10:52:14Z</time>
      </trkpt>
      <trkpt lat="45.37069" lon="5.81181">
        <ele>1827.599975586</ele>
        <time>2013-02-28T10:55:23Z</time>
      </trkpt>
      <trkpt lat="45.37071" lon="5.81183">
        <ele>1828.199951172</ele>
        <time>2013-02-28T11:01:58Z</time>
      </trkpt>
      <trkpt lat="45.3707" lon="5.81181">
        <ele>1827.400024414</ele>
        <time>2013-02-28T11:02:52Z</time>
      </trkpt>
      <trkpt lat="45.37072" lon="5.81182">
        <ele>1828</ele>
        <time>2013-02-28T11:12:08Z</time>
      </trkpt>
      <trkpt lat="45.37069" lon="5.81184">
        <ele>1828</ele>
        <time>2013-02-28T11:15:58Z</time>
      </trkpt>
      <trkpt lat="45.37071" lon="5.81179">
        <ele>1827.199951172</ele>
        <time>2013-02-28T11:26:49Z</time>
      </trkpt>
      <trkpt lat="45.37071" lon="5.81182">
        <ele>1827.800048828</ele>
        <time>2013-02-28T11:29:56Z</time>
      </trkpt>
      <trkpt lat="45.37073" lon="5.81181">
        <ele>1827.800048828</ele>
        <time>2013-02-28T11:34:38Z</time>
      </trkpt>
      <trkpt lat="45.37075" lon="5.81189">
        <ele>1829.400024414</ele>
        <time>2013-02-28T11:36:26Z</time>
      </trkpt>
      <trkpt lat="45.37075" lon="5.81181">
        <ele>1828</ele>
        <time>2013-02-28T11:38:09Z</time>
      </trkpt>
      <trkpt lat="45.37072" lon="5.81183">
        <ele>1828</ele>
        <time>2013-02-28T11:55:17Z</time>
      </trkpt>
      <trkpt lat="45.37072" lon="5.8118">
        <ele>1827.599975586</ele>
        <time>2013-02-28T11:56:20Z</time>
      </trkpt>
      <trkpt lat="45.37073" lon="5.81183">
        <ele>1828.199951172</ele>
        <time>2013-02-28T12:05:07Z</time>
      </trkpt>
      <trkpt lat="45.37073" lon="5.81178">
        <ele>1827.199951172</ele>
        <time>2013-02-28T12:08:33Z</time>
      </trkpt>
      <trkpt lat="45.37077" lon="5.81185">
        <ele>1829</ele>
        <time>2013-02-28T12:12:53Z</time>
      </trkpt>
      <trkpt lat="45.37075" lon="5.81194">
        <ele>1830.400024414</ele>
        <time>2013-02-28T12:15:43Z</time>
      </trkpt>
      <trkpt lat="45.37075" lon="5.81191">
        <ele>1830</ele>
        <time>2013-02-28T12:17:50Z</time>
      </trkpt>
      <trkpt lat="45.37077" lon="5.81194">
        <ele>1830.599975586</ele>
        <time>2013-02-28T12:19:04Z</time>
      </trkpt>
      <trkpt lat="45.37075" lon="5.812">
        <ele>1831.599975586</ele>
        <time>2013-02-28T12:23:13Z</time>
      </trkpt>
      <trkpt lat="45.37081" lon="5.81195">
        <ele>1831</ele>
        <time>2013-02-28T12:32:37Z</time>
      </trkpt>
      <trkpt lat="45.37146" lon="5.81225">
        <ele>1838.400024414</ele>
        <time>2013-02-28T12:33:22Z</time>
      </trkpt>
      <trkpt lat="45.37178" lon="5.81234">
        <ele>1840</ele>
        <time>2013-02-28T12:33:27Z</time>
      </trkpt>
      <trkpt lat="45.37189" lon="5.81248">
        <ele>1842</ele>
        <time>2013-02-28T12:33:30Z</time>
      </trkpt>
      <trkpt lat="45.3719" lon="5.81254">
        <ele>1842.800048828</ele>
        <time>2013-02-28T12:33:32Z</time>
      </trkpt>
      <trkpt lat="45.37242" lon="5.81266">
        <ele>1842.599975586</ele>
        <time>2013-02-28T12:33:45Z</time>
      </trkpt>
      <trkpt lat="45.37246" lon="5.8126">
        <ele>1842</ele>
        <time>2013-02-28T12:34:36Z</time>
      </trkpt>
      <trkpt lat="45.37265" lon="5.81304">
        <ele>1845</ele>
        <time>2013-02-28T12:35:12Z</time>
      </trkpt>
      <trkpt lat="45.3728" lon="5.81327">
        <ele>1846.400024414</ele>
        <time>2013-02-28T12:35:15Z</time>
      </trkpt>
      <trkpt lat="45.37324" lon="5.81351">
        <ele>1845.599975586</ele>
        <time>2013-02-28T12:35:23Z</time>
      </trkpt>
      <trkpt lat="45.37315" lon="5.81356">
        <ele>1846.400024414</ele>
        <time>2013-02-28T12:35:40Z</time>
      </trkpt>
      <trkpt lat="45.37308" lon="5.81374">
        <ele>1847.800048828</ele>
        <time>2013-02-28T12:35:43Z</time>
      </trkpt>
      <trkpt lat="45.37315" lon="5.81379">
        <ele>1847.800048828</ele>
        <time>2013-02-28T12:36:34Z</time>
      </trkpt>
      <trkpt lat="45.37319" lon="5.81389">
        <ele>1848</ele>
        <time>2013-02-28T12:37:02Z</time>
      </trkpt>
      <trkpt lat="45.37325" lon="5.81449">
        <ele>1849.199951172</ele>
        <time>2013-02-28T12:37:34Z</time>
      </trkpt>
      <trkpt lat="45.37329" lon="5.81452">
        <ele>1849</ele>
        <time>2013-02-28T12:37:40Z</time>
      </trkpt>
      <trkpt lat="45.37325" lon="5.81469">
        <ele>1849.199951172</ele>
        <time>2013-02-28T12:38:35Z</time>
      </trkpt>
      <trkpt lat="45.37325" lon="5.81466">
        <ele>1849.199951172</ele>
        <time>2013-02-28T12:39:09Z</time>
      </trkpt>
      <trkpt lat="45.37326" lon="5.81477">
        <ele>1849.199951172</ele>
        <time>2013-02-28T12:39:16Z</time>
      </trkpt>
      <trkpt lat="45.37318" lon="5.81493">
        <ele>1849.400024414</ele>
        <time>2013-02-28T12:39:22Z</time>
      </trkpt>
      <trkpt lat="45.37341" lon="5.81494">
        <ele>1848.400024414</ele>
        <time>2013-02-28T12:39:29Z</time>
      </trkpt>
      <trkpt lat="45.37334" lon="5.81503">
        <ele>1848.400024414</ele>
        <time>2013-02-28T12:39:42Z</time>
      </trkpt>
      <trkpt lat="45.37338" lon="5.81515">
        <ele>1846.599975586</ele>
        <time>2013-02-28T12:39:45Z</time>
      </trkpt>
      <trkpt lat="45.3734" lon="5.81512">
        <ele>1847</ele>
        <time>2013-02-28T12:39:58Z</time>
      </trkpt>
      <trkpt lat="45.37334" lon="5.81527">
        <ele>1845</ele>
        <time>2013-02-28T12:40:57Z</time>
      </trkpt>
      <trkpt lat="45.37341" lon="5.81582">
        <ele>1837</ele>
        <time>2013-02-28T12:41:07Z</time>
      </trkpt>
      <trkpt lat="45.37354" lon="5.81628">
        <ele>1822.599975586</ele>
        <time>2013-02-28T12:41:15Z</time>
      </trkpt>
      <trkpt lat="45.37362" lon="5.81644">
        <ele>1817.400024414</ele>
        <time>2013-02-28T12:41:18Z</time>
      </trkpt>
      <trkpt lat="45.37363" lon="5.81641">
        <ele>1818.599975586</ele>
        <time>2013-02-28T12:42:11Z</time>
      </trkpt>
      <trkpt lat="45.37366" lon="5.81651">
        <ele>1815.400024414</ele>
        <time>2013-02-28T12:42:15Z</time>
      </trkpt>
      <trkpt lat="45.3738" lon="5.81672">
        <ele>1807.800048828</ele>
        <time>2013-02-28T12:42:21Z</time>
      </trkpt>
      <trkpt lat="45.37392" lon="5.81732">
        <ele>1778.400024414</ele>
        <time>2013-02-28T12:42:28Z</time>
      </trkpt>
      <trkpt lat="45.37402" lon="5.81743">
        <ele>1773.400024414</ele>
        <time>2013-02-28T12:42:30Z</time>
      </trkpt>
      <trkpt lat="45.37411" lon="5.81741">
        <ele>1774.199951172</ele>
        <time>2013-02-28T12:42:37Z</time>
      </trkpt>
      <trkpt lat="45.37411" lon="5.81737">
        <ele>1776.199951172</ele>
        <time>2013-02-28T12:43:18Z</time>
      </trkpt>
      <trkpt lat="45.3741" lon="5.8174">
        <ele>1774.800048828</ele>
        <time>2013-02-28T12:45:46Z</time>
      </trkpt>
      <trkpt lat="45.37413" lon="5.81737">
        <ele>1776</ele>
        <time>2013-02-28T12:46:05Z</time>
      </trkpt>
      <trkpt lat="45.37409" lon="5.81742">
        <ele>1773.599975586</ele>
        <time>2013-02-28T12:47:04Z</time>
      </trkpt>
      <trkpt lat="45.37425" lon="5.81693">
        <ele>1798.800048828</ele>
        <time>2013-02-28T12:51:50Z</time>
      </trkpt>
      <trkpt lat="45.37426" lon="5.81661">
        <ele>1812.599975586</ele>
        <time>2013-02-28T12:52:37Z</time>
      </trkpt>
      <trkpt lat="45.37422" lon="5.81655">
        <ele>1813.800048828</ele>
        <time>2013-02-28T12:52:50Z</time>
      </trkpt>
      <trkpt lat="45.37423" lon="5.81649">
        <ele>1815.800048828</ele>
        <time>2013-02-28T12:53:00Z</time>
      </trkpt>
      <trkpt lat="45.37444" lon="5.81631">
        <ele>1822.199951172</ele>
        <time>2013-02-28T12:53:37Z</time>
      </trkpt>
      <trkpt lat="45.37468" lon="5.81623">
        <ele>1825.199951172</ele>
        <time>2013-02-28T12:54:30Z</time>
      </trkpt>
      <trkpt lat="45.37466" lon="5.8161">
        <ele>1827.599975586</ele>
        <time>2013-02-28T12:54:48Z</time>
      </trkpt>
      <trkpt lat="45.37492" lon="5.81568">
        <ele>1833.599975586</ele>
        <time>2013-02-28T12:56:27Z</time>
      </trkpt>
      <trkpt lat="45.37474" lon="5.81561">
        <ele>1835</ele>
        <time>2013-02-28T12:57:02Z</time>
      </trkpt>
      <trkpt lat="45.37491" lon="5.81548">
        <ele>1835.400024414</ele>
        <time>2013-02-28T12:57:36Z</time>
      </trkpt>
      <trkpt lat="45.37479" lon="5.81539">
        <ele>1836.800048828</ele>
        <time>2013-02-28T12:58:07Z</time>
      </trkpt>
      <trkpt lat="45.37493" lon="5.8153">
        <ele>1836.800048828</ele>
        <time>2013-02-28T12:58:56Z</time>
      </trkpt>
      <trkpt lat="45.37484" lon="5.81518">
        <ele>1838.400024414</ele>
        <time>2013-02-28T12:59:21Z</time>
      </trkpt>
      <trkpt lat="45.37494" lon="5.81513">
        <ele>1838.199951172</ele>
        <time>2013-02-28T12:59:39Z</time>
      </trkpt>
      <trkpt lat="45.37516" lon="5.81519">
        <ele>1836</ele>
        <time>2013-02-28T13:00:12Z</time>
      </trkpt>
      <trkpt lat="45.37527" lon="5.81516">
        <ele>1835.199951172</ele>
        <time>2013-02-28T13:00:37Z</time>
      </trkpt>
      <trkpt lat="45.37522" lon="5.81509">
        <ele>1836.199951172</ele>
        <time>2013-02-28T13:01:07Z</time>
      </trkpt>
      <trkpt lat="45.37528" lon="5.81511">
        <ele>1835.400024414</ele>
        <time>2013-02-28T13:01:20Z</time>
      </trkpt>
      <trkpt lat="45.37549" lon="5.81499">
        <ele>1834.199951172</ele>
        <time>2013-02-28T13:01:58Z</time>
      </trkpt>
      <trkpt lat="45.37569" lon="5.81478">
        <ele>1830.400024414</ele>
        <time>2013-02-28T13:02:34Z</time>
      </trkpt>
      <trkpt lat="45.37627" lon="5.81441">
        <ele>1819.199951172</ele>
        <time>2013-02-28T13:03:59Z</time>
      </trkpt>
      <trkpt lat="45.37671" lon="5.8143">
        <ele>1810.800048828</ele>
        <time>2013-02-28T13:04:59Z</time>
      </trkpt>
      <trkpt lat="45.37689" lon="5.81432">
        <ele>1807.800048828</ele>
        <time>2013-02-28T13:05:25Z</time>
      </trkpt>
      <trkpt lat="45.37689" lon="5.81435">
        <ele>1808.199951172</ele>
        <time>2013-02-28T13:08:03Z</time>
      </trkpt>
      <trkpt lat="45.3769" lon="5.81433">
        <ele>1807.800048828</ele>
        <time>2013-02-28T13:09:23Z</time>
      </trkpt>
      <trkpt lat="45.37688" lon="5.81434">
        <ele>1808.400024414</ele>
        <time>2013-02-28T13:10:28Z</time>
      </trkpt>
      <trkpt lat="45.37708" lon="5.81456">
        <ele>1808</ele>
        <time>2013-02-28T13:12:52Z</time>
      </trkpt>
      <trkpt lat="45.37727" lon="5.81465">
        <ele>1806.400024414</ele>
        <time>2013-02-28T13:12:57Z</time>
      </trkpt>
      <trkpt lat="45.37813" lon="5.81458">
        <ele>1789.400024414</ele>
        <time>2013-02-28T13:13:09Z</time>
      </trkpt>
      <trkpt lat="45.37842" lon="5.81451">
        <ele>1782.599975586</ele>
        <time>2013-02-28T13:13:13Z</time>
      </trkpt>
      <trkpt lat="45.3792" lon="5.8148">
        <ele>1775</ele>
        <time>2013-02-28T13:13:30Z</time>
      </trkpt>
      <trkpt lat="45.37977" lon="5.81515">
        <ele>1772.800048828</ele>
        <time>2013-02-28T13:13:57Z</time>
      </trkpt>
      <trkpt lat="45.3806" lon="5.81554">
        <ele>1766.599975586</ele>
        <time>2013-02-28T13:14:19Z</time>
      </trkpt>
      <trkpt lat="45.38134" lon="5.81578">
        <ele>1762.599975586</ele>
        <time>2013-02-28T13:14:34Z</time>
      </trkpt>
      <trkpt lat="45.3815" lon="5.81589">
        <ele>1763.400024414</ele>
        <time>2013-02-28T13:14:37Z</time>
      </trkpt>
      <trkpt lat="45.38169" lon="5.81594">
        <ele>1763.800048828</ele>
        <time>2013-02-28T13:14:41Z</time>
      </trkpt>
      <trkpt lat="45.38216" lon="5.81625">
        <ele>1777.599975586</ele>
        <time>2013-02-28T13:14:54Z</time>
      </trkpt>
      <trkpt lat="45.38225" lon="5.81638">
        <ele>1781.800048828</ele>
        <time>2013-02-28T13:15:11Z</time>
      </trkpt>
      <trkpt lat="45.38265" lon="5.81672">
        <ele>1783.599975586</ele>
        <time>2013-02-28T13:15:20Z</time>
      </trkpt>
      <trkpt lat="45.38308" lon="5.817">
        <ele>1766.199951172</ele>
        <time>2013-02-28T13:15:31Z</time>
      </trkpt>
      <trkpt lat="45.3831" lon="5.81698">
        <ele>1766</ele>
        <time>2013-02-28T13:15:34Z</time>
      </trkpt>
      <trkpt lat="45.38307" lon="5.81687">
        <ele>1767.400024414</ele>
        <time>2013-02-28T13:15:46Z</time>
      </trkpt>
      <trkpt lat="45.38323" lon="5.81691">
        <ele>1762.599975586</ele>
        <time>2013-02-28T13:15:55Z</time>
      </trkpt>
      <trkpt lat="45.38338" lon="5.81685">
        <ele>1758</ele>
        <time>2013-02-28T13:15:59Z</time>
      </trkpt>
      <trkpt lat="45.38361" lon="5.81683">
        <ele>1749.599975586</ele>
        <time>2013-02-28T13:16:07Z</time>
      </trkpt>
      <trkpt lat="45.38367" lon="5.81671">
        <ele>1745</ele>
        <time>2013-02-28T13:16:10Z</time>
      </trkpt>
      <trkpt lat="45.38377" lon="5.81678">
        <ele>1742.599975586</ele>
        <time>2013-02-28T13:16:13Z</time>
      </trkpt>
      <trkpt lat="45.38381" lon="5.81647">
        <ele>1730.599975586</ele>
        <time>2013-02-28T13:16:19Z</time>
      </trkpt>
      <trkpt lat="45.38384" lon="5.81646">
        <ele>1729</ele>
        <time>2013-02-28T13:16:20Z</time>
      </trkpt>
      <trkpt lat="45.38384" lon="5.81653">
        <ele>1731.400024414</ele>
        <time>2013-02-28T13:16:27Z</time>
      </trkpt>
      <trkpt lat="45.38389" lon="5.8165">
        <ele>1728.400024414</ele>
        <time>2013-02-28T13:16:50Z</time>
      </trkpt>
      <trkpt lat="45.38407" lon="5.81652">
        <ele>1721.599975586</ele>
        <time>2013-02-28T13:16:54Z</time>
      </trkpt>
      <trkpt lat="45.38427" lon="5.81616">
        <ele>1701.199951172</ele>
        <time>2013-02-28T13:17:01Z</time>
      </trkpt>
      <trkpt lat="45.38429" lon="5.81604">
        <ele>1696.400024414</ele>
        <time>2013-02-28T13:17:04Z</time>
      </trkpt>
      <trkpt lat="45.38428" lon="5.81606">
        <ele>1697.599975586</ele>
        <time>2013-02-28T13:17:07Z</time>
      </trkpt>
      <trkpt lat="45.38434" lon="5.81568">
        <ele>1684.800048828</ele>
        <time>2013-02-28T13:17:40Z</time>
      </trkpt>
      <trkpt lat="45.38424" lon="5.8157">
        <ele>1690</ele>
        <time>2013-02-28T13:18:14Z</time>
      </trkpt>
      <trkpt lat="45.38413" lon="5.81539">
        <ele>1688</ele>
        <time>2013-02-28T13:18:25Z</time>
      </trkpt>
      <trkpt lat="45.38432" lon="5.81489">
        <ele>1669.199951172</ele>
        <time>2013-02-28T13:18:30Z</time>
      </trkpt>
      <trkpt lat="45.38442" lon="5.81455">
        <ele>1659.199951172</ele>
        <time>2013-02-28T13:18:33Z</time>
      </trkpt>
      <trkpt lat="45.38443" lon="5.81433">
        <ele>1654.599975586</ele>
        <time>2013-02-28T13:18:36Z</time>
      </trkpt>
      <trkpt lat="45.38469" lon="5.81395">
        <ele>1656</ele>
        <time>2013-02-28T13:18:42Z</time>
      </trkpt>
      <trkpt lat="45.38466" lon="5.81402">
        <ele>1654.599975586</ele>
        <time>2013-02-28T13:19:43Z</time>
      </trkpt>
      <trkpt lat="45.38466" lon="5.81398">
        <ele>1655.199951172</ele>
        <time>2013-02-28T13:21:32Z</time>
      </trkpt>
      <trkpt lat="45.3847" lon="5.81404">
        <ele>1654.599975586</ele>
        <time>2013-02-28T13:25:26Z</time>
      </trkpt>
      <trkpt lat="45.38467" lon="5.81404">
        <ele>1654.400024414</ele>
        <time>2013-02-28T13:25:35Z</time>
      </trkpt>
      <trkpt lat="45.3847" lon="5.81404">
        <ele>1654.400024414</ele>
        <time>2013-02-28T13:25:45Z</time>
      </trkpt>
      <trkpt lat="45.38465" lon="5.81401">
        <ele>1654.800048828</ele>
        <time>2013-02-28T13:26:21Z</time>
      </trkpt>
      <trkpt lat="45.38454" lon="5.81352">
        <ele>1661.800048828</ele>
        <time>2013-02-28T13:27:17Z</time>
      </trkpt>
      <trkpt lat="45.38438" lon="5.81249">
        <ele>1681.400024414</ele>
        <time>2013-02-28T13:29:18Z</time>
      </trkpt>
      <trkpt lat="45.38441" lon="5.81238">
        <ele>1684.599975586</ele>
        <time>2013-02-28T13:29:37Z</time>
      </trkpt>
      <trkpt lat="45.38476" lon="5.8123">
        <ele>1692.199951172</ele>
        <time>2013-02-28T13:30:36Z</time>
      </trkpt>
      <trkpt lat="45.38482" lon="5.81223">
        <ele>1694.800048828</ele>
        <time>2013-02-28T13:30:52Z</time>
      </trkpt>
      <trkpt lat="45.38479" lon="5.8117">
        <ele>1707.199951172</ele>
        <time>2013-02-28T13:31:57Z</time>
      </trkpt>
      <trkpt lat="45.38487" lon="5.81152">
        <ele>1714.199951172</ele>
        <time>2013-02-28T13:32:22Z</time>
      </trkpt>
      <trkpt lat="45.38517" lon="5.81117">
        <ele>1726.800048828</ele>
        <time>2013-02-28T13:33:19Z</time>
      </trkpt>
      <trkpt lat="45.38584" lon="5.81069">
        <ele>1731.400024414</ele>
        <time>2013-02-28T13:35:24Z</time>
      </trkpt>
      <trkpt lat="45.38624" lon="5.81054">
        <ele>1731.199951172</ele>
        <time>2013-02-28T13:39:58Z</time>
      </trkpt>
      <trkpt lat="45.38622" lon="5.81054">
        <ele>1731.199951172</ele>
        <time>2013-02-28T13:41:39Z</time>
      </trkpt>
      <trkpt lat="45.38623" lon="5.81056">
        <ele>1731.400024414</ele>
        <time>2013-02-28T13:43:17Z</time>
      </trkpt>
      <trkpt lat="45.38633" lon="5.81007">
        <ele>1724.599975586</ele>
        <time>2013-02-28T13:47:19Z</time>
      </trkpt>
      <trkpt lat="45.38624" lon="5.80953">
        <ele>1703</ele>
        <time>2013-02-28T13:47:23Z</time>
      </trkpt>
      <trkpt lat="45.38612" lon="5.80911">
        <ele>1683.400024414</ele>
        <time>2013-02-28T13:47:26Z</time>
      </trkpt>
      <trkpt lat="45.38595" lon="5.80869">
        <ele>1674.800048828</ele>
        <time>2013-02-28T13:47:30Z</time>
      </trkpt>
      <trkpt lat="45.38569" lon="5.8083">
        <ele>1662.199951172</ele>
        <time>2013-02-28T13:47:36Z</time>
      </trkpt>
      <trkpt lat="45.38554" lon="5.80819">
        <ele>1657.800048828</ele>
        <time>2013-02-28T13:47:39Z</time>
      </trkpt>
      <trkpt lat="45.38535" lon="5.80814">
        <ele>1651.599975586</ele>
        <time>2013-02-28T13:47:42Z</time>
      </trkpt>
      <trkpt lat="45.38519" lon="5.80798">
        <ele>1647.199951172</ele>
        <time>2013-02-28T13:47:45Z</time>
      </trkpt>
      <trkpt lat="45.38495" lon="5.80796">
        <ele>1639</ele>
        <time>2013-02-28T13:47:49Z</time>
      </trkpt>
      <trkpt lat="45.38493" lon="5.80789">
        <ele>1638.599975586</ele>
        <time>2013-02-28T13:47:52Z</time>
      </trkpt>
      <trkpt lat="45.38498" lon="5.80797">
        <ele>1640.400024414</ele>
        <time>2013-02-28T13:48:04Z</time>
      </trkpt>
      <trkpt lat="45.38496" lon="5.80784">
        <ele>1640</ele>
        <time>2013-02-28T13:48:46Z</time>
      </trkpt>
      <trkpt lat="45.38499" lon="5.80785">
        <ele>1641.199951172</ele>
        <time>2013-02-28T13:50:05Z</time>
      </trkpt>
      <trkpt lat="45.38497" lon="5.80781">
        <ele>1640.800048828</ele>
        <time>2013-02-28T13:50:23Z</time>
      </trkpt>
      <trkpt lat="45.38502" lon="5.80773">
        <ele>1643.199951172</ele>
        <time>2013-02-28T13:51:41Z</time>
      </trkpt>
      <trkpt lat="45.38517" lon="5.80796">
        <ele>1646.599975586</ele>
        <time>2013-02-28T13:52:09Z</time>
      </trkpt>
      <trkpt lat="45.38509" lon="5.8082">
        <ele>1642.800048828</ele>
        <time>2013-02-28T13:52:59Z</time>
      </trkpt>
      <trkpt lat="45.38507" lon="5.80839">
        <ele>1645</ele>
        <time>2013-02-28T13:53:19Z</time>
      </trkpt>
      <trkpt lat="45.38541" lon="5.80841">
        <ele>1656</ele>
        <time>2013-02-28T13:54:20Z</time>
      </trkpt>
      <trkpt lat="45.38567" lon="5.80852">
        <ele>1665.599975586</ele>
        <time>2013-02-28T13:55:01Z</time>
      </trkpt>
      <trkpt lat="45.38606" lon="5.80849">
        <ele>1676.400024414</ele>
        <time>2013-02-28T13:56:07Z</time>
      </trkpt>
      <trkpt lat="45.38617" lon="5.80845">
        <ele>1679.400024414</ele>
        <time>2013-02-28T13:56:24Z</time>
      </trkpt>
      <trkpt lat="45.38621" lon="5.80896">
        <ele>1684.599975586</ele>
        <time>2013-02-28T13:57:25Z</time>
      </trkpt>
      <trkpt lat="45.38633" lon="5.80895">
        <ele>1687.599975586</ele>
        <time>2013-02-28T13:57:48Z</time>
      </trkpt>
      <trkpt lat="45.38667" lon="5.8088">
        <ele>1696.400024414</ele>
        <time>2013-02-28T13:58:42Z</time>
      </trkpt>
      <trkpt lat="45.38676" lon="5.80882">
        <ele>1697</ele>
        <time>2013-02-28T13:58:54Z</time>
      </trkpt>
      <trkpt lat="45.38683" lon="5.8089">
        <ele>1697.199951172</ele>
        <time>2013-02-28T13:59:08Z</time>
      </trkpt>
      <trkpt lat="45.38701" lon="5.80929">
        <ele>1701.400024414</ele>
        <time>2013-02-28T13:59:54Z</time>
      </trkpt>
      <trkpt lat="45.38734" lon="5.80979">
        <ele>1721.400024414</ele>
        <time>2013-02-28T14:01:42Z</time>
      </trkpt>
      <trkpt lat="45.38734" lon="5.80976">
        <ele>1720.400024414</ele>
        <time>2013-02-28T14:01:59Z</time>
      </trkpt>
      <trkpt lat="45.38737" lon="5.80978">
        <ele>1721.400024414</ele>
        <time>2013-02-28T14:03:12Z</time>
      </trkpt>
      <trkpt lat="45.38733" lon="5.80979">
        <ele>1721.400024414</ele>
        <time>2013-02-28T14:04:03Z</time>
      </trkpt>
      <trkpt lat="45.3874" lon="5.80977">
        <ele>1721.599975586</ele>
        <time>2013-02-28T14:05:39Z</time>
      </trkpt>
      <trkpt lat="45.38738" lon="5.80979">
        <ele>1722.199951172</ele>
        <time>2013-02-28T14:08:19Z</time>
      </trkpt>
      <trkpt lat="45.38772" lon="5.81009">
        <ele>1725.599975586</ele>
        <time>2013-02-28T14:08:34Z</time>
      </trkpt>
      <trkpt lat="45.38786" lon="5.81027">
        <ele>1725.400024414</ele>
        <time>2013-02-28T14:08:50Z</time>
      </trkpt>
      <trkpt lat="45.38792" lon="5.81022">
        <ele>1722.400024414</ele>
        <time>2013-02-28T14:08:54Z</time>
      </trkpt>
      <trkpt lat="45.38825" lon="5.81041">
        <ele>1720</ele>
        <time>2013-02-28T14:11:57Z</time>
      </trkpt>
      <trkpt lat="45.38859" lon="5.81006">
        <ele>1686.199951172</ele>
        <time>2013-02-28T14:12:07Z</time>
      </trkpt>
      <trkpt lat="45.38898" lon="5.80993">
        <ele>1652.599975586</ele>
        <time>2013-02-28T14:12:15Z</time>
      </trkpt>
      <trkpt lat="45.38927" lon="5.80977">
        <ele>1633</ele>
        <time>2013-02-28T14:12:20Z</time>
      </trkpt>
      <trkpt lat="45.38933" lon="5.80978">
        <ele>1630.199951172</ele>
        <time>2013-02-28T14:12:22Z</time>
      </trkpt>
      <trkpt lat="45.38935" lon="5.80991">
        <ele>1630.800048828</ele>
        <time>2013-02-28T14:13:09Z</time>
      </trkpt>
      <trkpt lat="45.38969" lon="5.80998">
        <ele>1615.599975586</ele>
        <time>2013-02-28T14:13:17Z</time>
      </trkpt>
      <trkpt lat="45.39014" lon="5.80983">
        <ele>1594.800048828</ele>
        <time>2013-02-28T14:13:27Z</time>
      </trkpt>
      <trkpt lat="45.39032" lon="5.80968">
        <ele>1588.199951172</ele>
        <time>2013-02-28T14:13:32Z</time>
      </trkpt>
      <trkpt lat="45.39058" lon="5.80969">
        <ele>1581</ele>
        <time>2013-02-28T14:13:39Z</time>
      </trkpt>
      <trkpt lat="45.39054" lon="5.80976">
        <ele>1582.599975586</ele>
        <time>2013-02-28T14:14:52Z</time>
      </trkpt>
      <trkpt lat="45.39072" lon="5.80957">
        <ele>1576</ele>
        <time>2013-02-28T14:14:57Z</time>
      </trkpt>
      <trkpt lat="45.39108" lon="5.80931">
        <ele>1564.800048828</ele>
        <time>2013-02-28T14:15:05Z</time>
      </trkpt>
      <trkpt lat="45.39125" lon="5.80926">
        <ele>1560.400024414</ele>
        <time>2013-02-28T14:15:09Z</time>
      </trkpt>
      <trkpt lat="45.39142" lon="5.80933">
        <ele>1556.599975586</ele>
        <time>2013-02-28T14:15:16Z</time>
      </trkpt>
      <trkpt lat="45.39144" lon="5.8094">
        <ele>1556.199951172</ele>
        <time>2013-02-28T14:15:19Z</time>
      </trkpt>
      <trkpt lat="45.39162" lon="5.80954">
        <ele>1552.599975586</ele>
        <time>2013-02-28T14:15:24Z</time>
      </trkpt>
      <trkpt lat="45.39174" lon="5.80954">
        <ele>1548.599975586</ele>
        <time>2013-02-28T14:15:27Z</time>
      </trkpt>
      <trkpt lat="45.39187" lon="5.80944">
        <ele>1542.599975586</ele>
        <time>2013-02-28T14:15:34Z</time>
      </trkpt>
      <trkpt lat="45.3919" lon="5.80954">
        <ele>1542</ele>
        <time>2013-02-28T14:15:44Z</time>
      </trkpt>
      <trkpt lat="45.39202" lon="5.80958">
        <ele>1537.400024414</ele>
        <time>2013-02-28T14:15:48Z</time>
      </trkpt>
      <trkpt lat="45.39234" lon="5.80958">
        <ele>1525</ele>
        <time>2013-02-28T14:15:54Z</time>
      </trkpt>
      <trkpt lat="45.39246" lon="5.80963">
        <ele>1520.800048828</ele>
        <time>2013-02-28T14:15:57Z</time>
      </trkpt>
      <trkpt lat="45.39256" lon="5.8096">
        <ele>1517.199951172</ele>
        <time>2013-02-28T14:16:08Z</time>
      </trkpt>
      <trkpt lat="45.39293" lon="5.80975">
        <ele>1506.599975586</ele>
        <time>2013-02-28T14:16:14Z</time>
      </trkpt>
      <trkpt lat="45.3932" lon="5.80968">
        <ele>1497.599975586</ele>
        <time>2013-02-28T14:16:19Z</time>
      </trkpt>
      <trkpt lat="45.39327" lon="5.80943">
        <ele>1493.199951172</ele>
        <time>2013-02-28T14:16:22Z</time>
      </trkpt>
      <trkpt lat="45.39336" lon="5.80928">
        <ele>1489.199951172</ele>
        <time>2013-02-28T14:16:25Z</time>
      </trkpt>
      <trkpt lat="45.39354" lon="5.80914">
        <ele>1484.599975586</ele>
        <time>2013-02-28T14:16:29Z</time>
      </trkpt>
      <trkpt lat="45.3938" lon="5.80913">
        <ele>1479</ele>
        <time>2013-02-28T14:16:34Z</time>
      </trkpt>
      <trkpt lat="45.3939" lon="5.80907">
        <ele>1477</ele>
        <time>2013-02-28T14:16:36Z</time>
      </trkpt>
      <trkpt lat="45.39411" lon="5.80884">
        <ele>1473.400024414</ele>
        <time>2013-02-28T14:16:40Z</time>
      </trkpt>
      <trkpt lat="45.3944" lon="5.80865">
        <ele>1469.599975586</ele>
        <time>2013-02-28T14:16:44Z</time>
      </trkpt>
      <trkpt lat="45.39461" lon="5.80838">
        <ele>1467.800048828</ele>
        <time>2013-02-28T14:16:48Z</time>
      </trkpt>
      <trkpt lat="45.39479" lon="5.80822">
        <ele>1465.599975586</ele>
        <time>2013-02-28T14:16:51Z</time>
      </trkpt>
      <trkpt lat="45.39501" lon="5.80815">
        <ele>1462</ele>
        <time>2013-02-28T14:16:57Z</time>
      </trkpt>
      <trkpt lat="45.395" lon="5.80746">
        <ele>1457.400024414</ele>
        <time>2013-02-28T14:18:28Z</time>
      </trkpt>
      <trkpt lat="45.39506" lon="5.80715">
        <ele>1443.599975586</ele>
        <time>2013-02-28T14:18:33Z</time>
      </trkpt>
      <trkpt lat="45.39524" lon="5.80697">
        <ele>1433.400024414</ele>
        <time>2013-02-28T14:18:39Z</time>
      </trkpt>
      <trkpt lat="45.39522" lon="5.80694">
        <ele>1432.199951172</ele>
        <time>2013-02-28T14:18:43Z</time>
      </trkpt>
      <trkpt lat="45.39519" lon="5.80696">
        <ele>1433.599975586</ele>
        <time>2013-02-28T14:19:08Z</time>
      </trkpt>
      <trkpt lat="45.39481" lon="5.80642">
        <ele>1417.199951172</ele>
        <time>2013-02-28T14:19:20Z</time>
      </trkpt>
      <trkpt lat="45.3946" lon="5.80622">
        <ele>1414.199951172</ele>
        <time>2013-02-28T14:19:25Z</time>
      </trkpt>
      <trkpt lat="45.39428" lon="5.80577">
        <ele>1397.199951172</ele>
        <time>2013-02-28T14:19:55Z</time>
      </trkpt>
      <trkpt lat="45.39412" lon="5.80548">
        <ele>1393</ele>
        <time>2013-02-28T14:20:00Z</time>
      </trkpt>
      <trkpt lat="45.39383" lon="5.80452">
        <ele>1370</ele>
        <time>2013-02-28T14:20:14Z</time>
      </trkpt>
      <trkpt lat="45.39367" lon="5.80377">
        <ele>1354.400024414</ele>
        <time>2013-02-28T14:20:24Z</time>
      </trkpt>
      <trkpt lat="45.39359" lon="5.80363">
        <ele>1354</ele>
        <time>2013-02-28T14:20:30Z</time>
      </trkpt>
      <trkpt lat="45.39361" lon="5.80357">
        <ele>1351.400024414</ele>
        <time>2013-02-28T14:20:46Z</time>
      </trkpt>
      <trkpt lat="45.39351" lon="5.80348">
        <ele>1353.199951172</ele>
        <time>2013-02-28T14:21:02Z</time>
      </trkpt>
      <trkpt lat="45.39337" lon="5.80305">
        <ele>1349</ele>
        <time>2013-02-28T14:21:10Z</time>
      </trkpt>
      <trkpt lat="45.39334" lon="5.8029">
        <ele>1347.199951172</ele>
        <time>2013-02-28T14:21:13Z</time>
      </trkpt>
      <trkpt lat="45.39339" lon="5.80286">
        <ele>1345.400024414</ele>
        <time>2013-02-28T14:21:22Z</time>
      </trkpt>
      <trkpt lat="45.3936" lon="5.80296">
        <ele>1340.199951172</ele>
        <time>2013-02-28T14:21:46Z</time>
      </trkpt>
      <trkpt lat="45.39363" lon="5.80286">
        <ele>1337.800048828</ele>
        <time>2013-02-28T14:21:51Z</time>
      </trkpt>
      <trkpt lat="45.39379" lon="5.80274">
        <ele>1331.599975586</ele>
        <time>2013-02-28T14:21:55Z</time>
      </trkpt>
      <trkpt lat="45.39428" lon="5.80268">
        <ele>1317.199951172</ele>
        <time>2013-02-28T14:22:04Z</time>
      </trkpt>
      <trkpt lat="45.39448" lon="5.80261">
        <ele>1311</ele>
        <time>2013-02-28T14:22:08Z</time>
      </trkpt>
      <trkpt lat="45.39494" lon="5.80255">
        <ele>1297.800048828</ele>
        <time>2013-02-28T14:22:18Z</time>
      </trkpt>
      <trkpt lat="45.39538" lon="5.80243">
        <ele>1285.400024414</ele>
        <time>2013-02-28T14:22:26Z</time>
      </trkpt>
      <trkpt lat="45.39631" lon="5.80226">
        <ele>1263.199951172</ele>
        <time>2013-02-28T14:22:45Z</time>
      </trkpt>
      <trkpt lat="45.39629" lon="5.80231">
        <ele>1263.199951172</ele>
        <time>2013-02-28T14:22:48Z</time>
      </trkpt>
      <trkpt lat="45.39633" lon="5.80222">
        <ele>1262.800048828</ele>
        <time>2013-02-28T14:22:58Z</time>
      </trkpt>
      <trkpt lat="45.39662" lon="5.80204">
        <ele>1256</ele>
        <time>2013-02-28T14:23:22Z</time>
      </trkpt>
      <trkpt lat="45.39673" lon="5.80216">
        <ele>1253.800048828</ele>
        <time>2013-02-28T14:23:30Z</time>
      </trkpt>
      <trkpt lat="45.39688" lon="5.80221">
        <ele>1251.800048828</ele>
        <time>2013-02-28T14:23:34Z</time>
      </trkpt>
      <trkpt lat="45.39736" lon="5.80211">
        <ele>1244.599975586</ele>
        <time>2013-02-28T14:23:48Z</time>
      </trkpt>
      <trkpt lat="45.39763" lon="5.80209">
        <ele>1240.199951172</ele>
        <time>2013-02-28T14:24:00Z</time>
      </trkpt>
      <trkpt lat="45.39799" lon="5.80201">
        <ele>1233.800048828</ele>
        <time>2013-02-28T14:24:10Z</time>
      </trkpt>
      <trkpt lat="45.39858" lon="5.80195">
        <ele>1221.800048828</ele>
        <time>2013-02-28T14:24:19Z</time>
      </trkpt>
      <trkpt lat="45.39927" lon="5.80181">
        <ele>1201.800048828</ele>
        <time>2013-02-28T14:24:34Z</time>
      </trkpt>
      <trkpt lat="45.3994" lon="5.80171">
        <ele>1196.599975586</ele>
        <time>2013-02-28T14:24:37Z</time>
      </trkpt>
      <trkpt lat="45.39964" lon="5.80145">
        <ele>1184</ele>
        <time>2013-02-28T14:24:57Z</time>
      </trkpt>
      <trkpt lat="45.39986" lon="5.80151">
        <ele>1177</ele>
        <time>2013-02-28T14:25:03Z</time>
      </trkpt>
      <trkpt lat="45.39989" lon="5.80155">
        <ele>1176.599975586</ele>
        <time>2013-02-28T14:25:04Z</time>
      </trkpt>
      <trkpt lat="45.40021" lon="5.80118">
        <ele>1162</ele>
        <time>2013-02-28T14:25:13Z</time>
      </trkpt>
      <trkpt lat="45.40038" lon="5.80071">
        <ele>1150.199951172</ele>
        <time>2013-02-28T14:25:17Z</time>
      </trkpt>
      <trkpt lat="45.40017" lon="5.80026">
        <ele>1143.800048828</ele>
        <time>2013-02-28T14:25:22Z</time>
      </trkpt>
      <trkpt lat="45.4001" lon="5.80001">
        <ele>1139.400024414</ele>
        <time>2013-02-28T14:25:24Z</time>
      </trkpt>
      <trkpt lat="45.40003" lon="5.79923">
        <ele>1139.199951172</ele>
        <time>2013-02-28T14:25:35Z</time>
      </trkpt>
      <trkpt lat="45.40006" lon="5.79931">
        <ele>1139.400024414</ele>
        <time>2013-02-28T14:26:10Z</time>
      </trkpt>
      <trkpt lat="45.40008" lon="5.79927">
        <ele>1139.599975586</ele>
        <time>2013-02-28T14:26:25Z</time>
      </trkpt>
      <trkpt lat="45.4" lon="5.79921">
        <ele>1139</ele>
        <time>2013-02-28T14:27:07Z</time>
      </trkpt>
      <trkpt lat="45.40005" lon="5.79927">
        <ele>1139.400024414</ele>
        <time>2013-02-28T14:28:45Z</time>
      </trkpt>
      <trkpt lat="45.39997" lon="5.79924">
        <ele>1139.400024414</ele>
        <time>2013-02-28T14:29:30Z</time>
      </trkpt>
      <trkpt lat="45.40002" lon="5.79926">
        <ele>1139.199951172</ele>
        <time>2013-02-28T14:29:44Z</time>
      </trkpt>
      <trkpt lat="45.39996" lon="5.79922">
        <ele>1139.599975586</ele>
        <time>2013-02-28T14:30:53Z</time>
      </trkpt>
      <trkpt lat="45.39997" lon="5.79925">
        <ele>1139.400024414</ele>
        <time>2013-02-28T14:31:11Z</time>
      </trkpt>
      <trkpt lat="45.39996" lon="5.79923">
        <ele>1139.599975586</ele>
        <time>2013-02-28T14:31:45Z</time>
      </trkpt>
    </trkseg>
  </trk>
</gpx>